sensor_id;sensor_type;location;lat;lon;timestamp;temperature;humidity
69944;DHT22;57257;48.408;-4.498;2022-12-07T00:01:43;7.96;66.90
69944;DHT22;57257;48.408;-4.498;2022-12-07T00:04:14;7.99;66.90
69944;DHT22;57257;48.408;-4.498;2022-12-07T00:06:42;7.99;66.90
69944;DHT22;57257;48.408;-4.498;2022-12-07T00:09:13;8.01;66.79
69944;DHT22;57257;48.408;-4.498;2022-12-07T00:11:39;7.98;66.74
69944;DHT22;57257;48.408;-4.498;2022-12-07T00:14:07;8.01;66.70
69944;DHT22;57257;48.408;-4.498;2022-12-07T00:16:33;7.98;66.73
69944;DHT22;57257;48.408;-4.498;2022-12-07T00:18:59;7.98;66.64
69944;DHT22;57257;48.408;-4.498;2022-12-07T00:21:27;7.96;66.66
69944;DHT22;57257;48.408;-4.498;2022-12-07T00:23:54;7.96;66.68
69944;DHT22;57257;48.408;-4.498;2022-12-07T00:26:22;7.94;66.67
69944;DHT22;57257;48.408;-4.498;2022-12-07T00:28:50;7.92;66.72
69944;DHT22;57257;48.408;-4.498;2022-12-07T00:31:17;7.94;66.70
69944;DHT22;57257;48.408;-4.498;2022-12-07T00:33:44;7.92;66.74
69944;DHT22;57257;48.408;-4.498;2022-12-07T00:36:12;7.98;66.74
69944;DHT22;57257;48.408;-4.498;2022-12-07T00:38:38;7.98;66.75
69944;DHT22;57257;48.408;-4.498;2022-12-07T00:41:15;8.01;66.84
69944;DHT22;57257;48.408;-4.498;2022-12-07T00:43:42;8.05;66.78
69944;DHT22;57257;48.408;-4.498;2022-12-07T00:46:09;8.08;66.75
69944;DHT22;57257;48.408;-4.498;2022-12-07T00:48:34;8.10;66.65
69944;DHT22;57257;48.408;-4.498;2022-12-07T00:51:00;8.15;66.62
69944;DHT22;57257;48.408;-4.498;2022-12-07T00:53:27;8.19;66.58
69944;DHT22;57257;48.408;-4.498;2022-12-07T00:55:53;8.22;66.47
69944;DHT22;57257;48.408;-4.498;2022-12-07T00:58:20;8.24;66.36
69944;DHT22;57257;48.408;-4.498;2022-12-07T01:00:46;8.26;66.24
69944;DHT22;57257;48.408;-4.498;2022-12-07T01:03:13;8.28;66.13
69944;DHT22;57257;48.408;-4.498;2022-12-07T01:05:39;8.30;66.05
69944;DHT22;57257;48.408;-4.498;2022-12-07T01:08:05;8.35;65.94
69944;DHT22;57257;48.408;-4.498;2022-12-07T01:10:32;8.36;65.86
69944;DHT22;57257;48.408;-4.498;2022-12-07T01:12:58;8.40;65.69
69944;DHT22;57257;48.408;-4.498;2022-12-07T01:15:24;8.42;65.59
69944;DHT22;57257;48.408;-4.498;2022-12-07T01:17:50;8.43;65.51
69944;DHT22;57257;48.408;-4.498;2022-12-07T01:20:15;8.48;65.48
69944;DHT22;57257;48.408;-4.498;2022-12-07T01:22:42;8.49;65.43
69944;DHT22;57257;48.408;-4.498;2022-12-07T01:25:08;8.50;65.37
69944;DHT22;57257;48.408;-4.498;2022-12-07T01:27:35;8.54;65.28
69944;DHT22;57257;48.408;-4.498;2022-12-07T01:30:01;8.54;65.12
69944;DHT22;57257;48.408;-4.498;2022-12-07T01:32:28;8.57;64.98
69944;DHT22;57257;48.408;-4.498;2022-12-07T01:34:54;8.56;64.85
69944;DHT22;57257;48.408;-4.498;2022-12-07T01:37:19;8.57;64.75
69944;DHT22;57257;48.408;-4.498;2022-12-07T01:39:48;8.56;64.65
69944;DHT22;57257;48.408;-4.498;2022-12-07T01:42:14;8.60;64.65
69944;DHT22;57257;48.408;-4.498;2022-12-07T01:47:45;8.60;64.53
69944;DHT22;57257;48.408;-4.498;2022-12-07T01:50:11;8.57;64.51
69944;DHT22;57257;48.408;-4.498;2022-12-07T01:52:39;8.54;64.43
69944;DHT22;57257;48.408;-4.498;2022-12-07T01:55:08;8.54;64.24
69944;DHT22;57257;48.408;-4.498;2022-12-07T01:57:37;8.52;64.09
69944;DHT22;57257;48.408;-4.498;2022-12-07T02:00:06;8.52;64.01
69944;DHT22;57257;48.408;-4.498;2022-12-07T02:02:38;8.56;63.95
69944;DHT22;57257;48.408;-4.498;2022-12-07T02:05:06;8.50;64.08
69944;DHT22;57257;48.408;-4.498;2022-12-07T02:07:33;8.46;63.98
69944;DHT22;57257;48.408;-4.498;2022-12-07T02:10:16;8.45;64.01
69944;DHT22;57257;48.408;-4.498;2022-12-07T02:12:44;8.43;63.99
69944;DHT22;57257;48.408;-4.498;2022-12-07T02:15:11;8.40;64.07
69944;DHT22;57257;48.408;-4.498;2022-12-07T02:17:40;8.38;64.06
69944;DHT22;57257;48.408;-4.498;2022-12-07T02:20:21;8.40;64.02
69944;DHT22;57257;48.408;-4.498;2022-12-07T02:23:00;8.39;63.97
69944;DHT22;57257;48.408;-4.498;2022-12-07T02:31:01;8.39;63.93
69944;DHT22;57257;48.408;-4.498;2022-12-07T02:33:37;8.43;63.89
69944;DHT22;57257;48.408;-4.498;2022-12-07T02:36:10;8.40;63.78
69944;DHT22;57257;48.408;-4.498;2022-12-07T02:38:40;8.40;63.71
69944;DHT22;57257;48.408;-4.498;2022-12-07T02:41:16;8.43;63.55
69944;DHT22;57257;48.408;-4.498;2022-12-07T02:43:50;8.45;63.56
69944;DHT22;57257;48.408;-4.498;2022-12-07T02:46:21;8.45;63.56
69944;DHT22;57257;48.408;-4.498;2022-12-07T02:48:47;8.49;63.48
69944;DHT22;57257;48.408;-4.498;2022-12-07T02:51:13;8.48;63.43
69944;DHT22;57257;48.408;-4.498;2022-12-07T02:53:43;8.48;63.29
69944;DHT22;57257;48.408;-4.498;2022-12-07T03:16:03;8.59;63.00
69944;DHT22;57257;48.408;-4.498;2022-12-07T03:18:45;8.60;62.99
69944;DHT22;57257;48.408;-4.498;2022-12-07T03:21:15;8.60;62.90
69944;DHT22;57257;48.408;-4.498;2022-12-07T03:23:44;8.61;62.89
69944;DHT22;57257;48.408;-4.498;2022-12-07T03:26:13;8.61;62.91
69944;DHT22;57257;48.408;-4.498;2022-12-07T03:28:47;8.64;62.87
69944;DHT22;57257;48.408;-4.498;2022-12-07T03:31:16;8.69;62.87
69944;DHT22;57257;48.408;-4.498;2022-12-07T03:33:53;8.67;62.86
69944;DHT22;57257;48.408;-4.498;2022-12-07T03:37:07;8.69;62.78
69944;DHT22;57257;48.408;-4.498;2022-12-07T03:41:54;8.67;62.74
69944;DHT22;57257;48.408;-4.498;2022-12-07T03:44:20;8.66;62.80
69944;DHT22;57257;48.408;-4.498;2022-12-07T03:49:49;8.70;62.85
69944;DHT22;57257;48.408;-4.498;2022-12-07T03:52:40;8.73;62.88
69944;DHT22;57257;48.408;-4.498;2022-12-07T03:57:34;8.71;62.89
69944;DHT22;57257;48.408;-4.498;2022-12-07T04:00:03;8.66;63.04
69944;DHT22;57257;48.408;-4.498;2022-12-07T04:02:29;8.57;63.22
69944;DHT22;57257;48.408;-4.498;2022-12-07T04:04:55;8.59;63.43
69944;DHT22;57257;48.408;-4.498;2022-12-07T04:07:21;8.57;63.52
69944;DHT22;57257;48.408;-4.498;2022-12-07T04:09:47;8.59;63.48
69944;DHT22;57257;48.408;-4.498;2022-12-07T04:12:12;8.56;63.45
69944;DHT22;57257;48.408;-4.498;2022-12-07T04:14:37;8.48;63.48
69944;DHT22;57257;48.408;-4.498;2022-12-07T04:17:03;8.42;63.71
69944;DHT22;57257;48.408;-4.498;2022-12-07T04:19:31;8.42;63.73
69944;DHT22;57257;48.408;-4.498;2022-12-07T04:21:58;8.45;63.62
69944;DHT22;57257;48.408;-4.498;2022-12-07T04:24:24;8.43;63.58
69944;DHT22;57257;48.408;-4.498;2022-12-07T04:26:50;8.49;63.56
69944;DHT22;57257;48.408;-4.498;2022-12-07T04:29:16;8.50;63.61
69944;DHT22;57257;48.408;-4.498;2022-12-07T04:31:42;8.46;63.58
69944;DHT22;57257;48.408;-4.498;2022-12-07T04:34:08;8.48;63.62
69944;DHT22;57257;48.408;-4.498;2022-12-07T04:36:34;8.39;63.73
69944;DHT22;57257;48.408;-4.498;2022-12-07T04:39:00;8.36;64.02
69944;DHT22;57257;48.408;-4.498;2022-12-07T04:41:26;8.32;64.05
69944;DHT22;57257;48.408;-4.498;2022-12-07T04:43:57;8.28;64.23
69944;DHT22;57257;48.408;-4.498;2022-12-07T04:46:24;8.26;64.34
69944;DHT22;57257;48.408;-4.498;2022-12-07T04:48:50;8.29;64.51
69944;DHT22;57257;48.408;-4.498;2022-12-07T04:51:19;8.30;64.40
69944;DHT22;57257;48.408;-4.498;2022-12-07T04:53:45;8.35;64.22
69944;DHT22;57257;48.408;-4.498;2022-12-07T04:56:11;8.42;64.10
69944;DHT22;57257;48.408;-4.498;2022-12-07T04:58:36;8.45;64.04
69944;DHT22;57257;48.408;-4.498;2022-12-07T05:01:01;8.46;63.95
69944;DHT22;57257;48.408;-4.498;2022-12-07T05:03:27;8.46;63.95
69944;DHT22;57257;48.408;-4.498;2022-12-07T05:05:52;8.45;63.98
69944;DHT22;57257;48.408;-4.498;2022-12-07T05:08:18;8.43;63.94
69944;DHT22;57257;48.408;-4.498;2022-12-07T05:10:43;8.42;63.96
69944;DHT22;57257;48.408;-4.498;2022-12-07T05:13:09;8.42;64.02
69944;DHT22;57257;48.408;-4.498;2022-12-07T05:15:34;8.39;64.03
69944;DHT22;57257;48.408;-4.498;2022-12-07T05:17:59;8.39;63.99
69944;DHT22;57257;48.408;-4.498;2022-12-07T05:20:25;8.38;64.03
69944;DHT22;57257;48.408;-4.498;2022-12-07T05:22:50;8.39;63.92
69944;DHT22;57257;48.408;-4.498;2022-12-07T05:25:16;8.39;63.92
69944;DHT22;57257;48.408;-4.498;2022-12-07T05:27:41;8.42;63.88
69944;DHT22;57257;48.408;-4.498;2022-12-07T05:30:07;8.46;63.96
69944;DHT22;57257;48.408;-4.498;2022-12-07T05:32:32;8.46;64.00
69944;DHT22;57257;48.408;-4.498;2022-12-07T05:34:58;8.43;64.04
69944;DHT22;57257;48.408;-4.498;2022-12-07T05:37:23;8.46;64.07
69944;DHT22;57257;48.408;-4.498;2022-12-07T05:39:49;8.50;63.96
69944;DHT22;57257;48.408;-4.498;2022-12-07T05:42:14;8.52;63.95
69944;DHT22;57257;48.408;-4.498;2022-12-07T05:44:41;8.49;63.81
69944;DHT22;57257;48.408;-4.498;2022-12-07T05:47:07;8.53;63.86
69944;DHT22;57257;48.408;-4.498;2022-12-07T05:49:33;8.52;63.84
69944;DHT22;57257;48.408;-4.498;2022-12-07T05:51:58;8.57;63.76
69944;DHT22;57257;48.408;-4.498;2022-12-07T05:54:24;8.56;63.70
69944;DHT22;57257;48.408;-4.498;2022-12-07T05:56:50;8.56;63.57
69944;DHT22;57257;48.408;-4.498;2022-12-07T05:59:15;8.60;63.66
69944;DHT22;57257;48.408;-4.498;2022-12-07T06:02:02;8.63;63.57
69944;DHT22;57257;48.408;-4.498;2022-12-07T06:04:31;8.59;63.43
69944;DHT22;57257;48.408;-4.498;2022-12-07T06:06:57;8.57;63.44
69944;DHT22;57257;48.408;-4.498;2022-12-07T06:09:24;8.57;63.38
69944;DHT22;57257;48.408;-4.498;2022-12-07T06:11:50;8.53;63.25
69944;DHT22;57257;48.408;-4.498;2022-12-07T06:14:35;8.54;63.21
69944;DHT22;57257;48.408;-4.498;2022-12-07T06:17:01;8.53;63.19
69944;DHT22;57257;48.408;-4.498;2022-12-07T06:19:26;8.52;63.11
69944;DHT22;57257;48.408;-4.498;2022-12-07T06:21:52;8.56;63.07
69944;DHT22;57257;48.408;-4.498;2022-12-07T06:24:18;8.56;62.98
69944;DHT22;57257;48.408;-4.498;2022-12-07T06:26:44;8.60;62.88
69944;DHT22;57257;48.408;-4.498;2022-12-07T06:29:10;8.61;62.76
69944;DHT22;57257;48.408;-4.498;2022-12-07T06:31:36;8.64;62.75
69944;DHT22;57257;48.408;-4.498;2022-12-07T06:34:13;8.66;62.70
69944;DHT22;57257;48.408;-4.498;2022-12-07T06:36:39;8.67;62.73
69944;DHT22;57257;48.408;-4.498;2022-12-07T06:39:06;8.64;62.77
69944;DHT22;57257;48.408;-4.498;2022-12-07T06:41:32;8.66;62.88
69944;DHT22;57257;48.408;-4.498;2022-12-07T06:43:58;8.67;62.68
69944;DHT22;57257;48.408;-4.498;2022-12-07T06:46:24;8.69;62.52
69944;DHT22;57257;48.408;-4.498;2022-12-07T06:48:49;8.70;62.31
69944;DHT22;57257;48.408;-4.498;2022-12-07T06:51:14;8.69;62.09
69944;DHT22;57257;48.408;-4.498;2022-12-07T06:53:40;8.73;61.93
69944;DHT22;57257;48.408;-4.498;2022-12-07T06:56:06;8.76;61.75
69944;DHT22;57257;48.408;-4.498;2022-12-07T06:58:31;8.77;61.59
69944;DHT22;57257;48.408;-4.498;2022-12-07T07:00:57;8.80;61.47
69944;DHT22;57257;48.408;-4.498;2022-12-07T07:03:22;8.83;61.34
69944;DHT22;57257;48.408;-4.498;2022-12-07T07:05:48;8.83;61.28
69944;DHT22;57257;48.408;-4.498;2022-12-07T07:08:14;8.84;61.16
69944;DHT22;57257;48.408;-4.498;2022-12-07T07:10:40;8.87;61.03
69944;DHT22;57257;48.408;-4.498;2022-12-07T07:13:06;8.88;60.92
69944;DHT22;57257;48.408;-4.498;2022-12-07T07:15:32;8.91;60.67
69944;DHT22;57257;48.408;-4.498;2022-12-07T07:17:59;8.87;60.82
69944;DHT22;57257;48.408;-4.498;2022-12-07T07:20:24;8.93;60.88
69944;DHT22;57257;48.408;-4.498;2022-12-07T07:22:50;8.94;60.84
69944;DHT22;57257;48.408;-4.498;2022-12-07T07:25:16;8.94;60.78
69944;DHT22;57257;48.408;-4.498;2022-12-07T07:27:41;8.96;60.54
69944;DHT22;57257;48.408;-4.498;2022-12-07T07:30:08;8.97;60.64
69944;DHT22;57257;48.408;-4.498;2022-12-07T07:32:33;8.99;60.62
69944;DHT22;57257;48.408;-4.498;2022-12-07T07:34:59;8.91;60.94
69944;DHT22;57257;48.408;-4.498;2022-12-07T07:37:25;8.88;61.21
69944;DHT22;57257;48.408;-4.498;2022-12-07T07:39:50;8.85;61.31
69944;DHT22;57257;48.408;-4.498;2022-12-07T07:42:16;8.77;61.51
69944;DHT22;57257;48.408;-4.498;2022-12-07T07:44:41;8.67;61.84
69944;DHT22;57257;48.408;-4.498;2022-12-07T07:47:07;8.66;62.18
69944;DHT22;57257;48.408;-4.498;2022-12-07T07:49:32;8.73;62.24
69944;DHT22;57257;48.408;-4.498;2022-12-07T07:51:58;8.81;62.19
69944;DHT22;57257;48.408;-4.498;2022-12-07T07:54:23;8.84;61.95
69944;DHT22;57257;48.408;-4.498;2022-12-07T07:56:48;8.83;61.68
69944;DHT22;57257;48.408;-4.498;2022-12-07T07:59:14;8.79;61.63
69944;DHT22;57257;48.408;-4.498;2022-12-07T08:01:40;8.74;61.76
69944;DHT22;57257;48.408;-4.498;2022-12-07T08:04:05;8.76;61.70
69944;DHT22;57257;48.408;-4.498;2022-12-07T08:06:31;8.73;61.81
69944;DHT22;57257;48.408;-4.498;2022-12-07T08:08:56;8.76;61.92
69944;DHT22;57257;48.408;-4.498;2022-12-07T08:11:23;8.79;61.97
69944;DHT22;57257;48.408;-4.498;2022-12-07T08:13:48;8.84;61.98
69944;DHT22;57257;48.408;-4.498;2022-12-07T08:16:14;8.91;62.02
69944;DHT22;57257;48.408;-4.498;2022-12-07T08:18:41;8.97;61.93
69944;DHT22;57257;48.408;-4.498;2022-12-07T08:21:12;9.04;61.80
69944;DHT22;57257;48.408;-4.498;2022-12-07T08:23:38;9.03;61.75
69944;DHT22;57257;48.408;-4.498;2022-12-07T08:26:06;9.04;61.70
69944;DHT22;57257;48.408;-4.498;2022-12-07T08:28:32;9.05;61.65
69944;DHT22;57257;48.408;-4.498;2022-12-07T08:31:08;9.07;61.68
69944;DHT22;57257;48.408;-4.498;2022-12-07T08:33:35;9.07;61.74
69944;DHT22;57257;48.408;-4.498;2022-12-07T08:36:03;9.10;61.75
69944;DHT22;57257;48.408;-4.498;2022-12-07T08:38:29;9.10;61.81
69944;DHT22;57257;48.408;-4.498;2022-12-07T08:40:55;9.08;61.86
69944;DHT22;57257;48.408;-4.498;2022-12-07T08:43:21;9.13;61.82
69944;DHT22;57257;48.408;-4.498;2022-12-07T08:48:36;9.14;61.73
69944;DHT22;57257;48.408;-4.498;2022-12-07T08:51:02;9.15;61.71
69944;DHT22;57257;48.408;-4.498;2022-12-07T08:53:29;9.20;61.83
69944;DHT22;57257;48.408;-4.498;2022-12-07T08:55:56;9.24;61.82
69944;DHT22;57257;48.408;-4.498;2022-12-07T08:58:22;9.24;61.79
69944;DHT22;57257;48.408;-4.498;2022-12-07T09:00:48;9.27;61.84
69944;DHT22;57257;48.408;-4.498;2022-12-07T09:03:13;9.32;61.69
69944;DHT22;57257;48.408;-4.498;2022-12-07T09:05:38;9.32;61.60
69944;DHT22;57257;48.408;-4.498;2022-12-07T09:08:04;9.35;61.49
69944;DHT22;57257;48.408;-4.498;2022-12-07T09:10:30;9.36;61.46
69944;DHT22;57257;48.408;-4.498;2022-12-07T09:12:56;9.39;61.43
69944;DHT22;57257;48.408;-4.498;2022-12-07T09:15:26;9.42;61.37
69944;DHT22;57257;48.408;-4.498;2022-12-07T09:17:52;9.48;61.27
69944;DHT22;57257;48.408;-4.498;2022-12-07T09:20:18;9.49;61.16
69944;DHT22;57257;48.408;-4.498;2022-12-07T09:22:43;9.52;61.25
69944;DHT22;57257;48.408;-4.498;2022-12-07T09:25:08;9.59;61.24
69944;DHT22;57257;48.408;-4.498;2022-12-07T09:27:34;9.65;60.98
69944;DHT22;57257;48.408;-4.498;2022-12-07T09:29:59;9.69;60.98
69944;DHT22;57257;48.408;-4.498;2022-12-07T09:32:25;9.75;60.77
69944;DHT22;57257;48.408;-4.498;2022-12-07T09:34:50;9.81;60.51
69944;DHT22;57257;48.408;-4.498;2022-12-07T09:37:16;9.82;60.33
69944;DHT22;57257;48.408;-4.498;2022-12-07T09:39:41;9.86;60.44
69944;DHT22;57257;48.408;-4.498;2022-12-07T09:42:07;9.96;60.27
69944;DHT22;57257;48.408;-4.498;2022-12-07T09:44:34;10.02;60.20
69944;DHT22;57257;48.408;-4.498;2022-12-07T09:47:01;10.10;59.96
69944;DHT22;57257;48.408;-4.498;2022-12-07T09:49:31;10.17;59.93
69944;DHT22;57257;48.408;-4.498;2022-12-07T09:52:20;10.28;59.84
69944;DHT22;57257;48.408;-4.498;2022-12-07T09:54:48;10.32;59.48
69944;DHT22;57257;48.408;-4.498;2022-12-07T09:57:14;10.37;59.41
69944;DHT22;57257;48.408;-4.498;2022-12-07T09:59:41;10.43;59.24
69944;DHT22;57257;48.408;-4.498;2022-12-07T10:03:07;10.49;58.98
69944;DHT22;57257;48.408;-4.498;2022-12-07T10:05:20;10.56;58.96
69944;DHT22;57257;48.408;-4.498;2022-12-07T10:07:47;10.60;58.50
69944;DHT22;57257;48.408;-4.498;2022-12-07T10:10:17;10.63;58.38
69944;DHT22;57257;48.408;-4.498;2022-12-07T10:13:00;10.65;58.27
69944;DHT22;57257;48.408;-4.498;2022-12-07T10:15:47;10.77;58.59
69944;DHT22;57257;48.408;-4.498;2022-12-07T10:21:00;10.88;58.19
69944;DHT22;57257;48.408;-4.498;2022-12-07T10:23:27;10.95;57.58
69944;DHT22;57257;48.408;-4.498;2022-12-07T10:25:52;10.95;57.65
69944;DHT22;57257;48.408;-4.498;2022-12-07T10:28:21;11.03;57.76
69944;DHT22;57257;48.408;-4.498;2022-12-07T10:31:03;11.07;57.14
69944;DHT22;57257;48.408;-4.498;2022-12-07T10:33:56;11.07;56.75
69944;DHT22;57257;48.408;-4.498;2022-12-07T10:41:24;11.12;56.93
69944;DHT22;57257;48.408;-4.498;2022-12-07T10:43:55;11.14;56.65
69944;DHT22;57257;48.408;-4.498;2022-12-07T10:49:37;11.25;56.45
69944;DHT22;57257;48.408;-4.498;2022-12-07T10:57:51;11.43;56.41
69944;DHT22;57257;48.408;-4.498;2022-12-07T11:00:37;11.48;56.21
69944;DHT22;57257;48.408;-4.498;2022-12-07T11:03:25;11.58;56.16
69944;DHT22;57257;48.408;-4.498;2022-12-07T11:11:16;11.55;55.71
69944;DHT22;57257;48.408;-4.498;2022-12-07T11:32:14;11.76;55.10
69944;DHT22;57257;48.408;-4.498;2022-12-07T11:37:38;11.79;54.96
69944;DHT22;57257;48.408;-4.498;2022-12-07T11:40:30;11.85;54.93
69944;DHT22;57257;48.408;-4.498;2022-12-07T11:43:01;11.87;54.73
69944;DHT22;57257;48.408;-4.498;2022-12-07T11:45:34;11.82;53.95
69944;DHT22;57257;48.408;-4.498;2022-12-07T11:50:40;11.70;54.92
69944;DHT22;57257;48.408;-4.498;2022-12-07T11:53:15;11.76;54.90
69944;DHT22;57257;48.408;-4.498;2022-12-07T11:58:40;11.86;54.56
69944;DHT22;57257;48.408;-4.498;2022-12-07T12:03:36;11.92;54.75
69944;DHT22;57257;48.408;-4.498;2022-12-07T12:06:03;11.93;54.60
69944;DHT22;57257;48.408;-4.498;2022-12-07T12:08:33;11.97;54.48
69944;DHT22;57257;48.408;-4.498;2022-12-07T12:14:08;12.02;54.26
69944;DHT22;57257;48.408;-4.498;2022-12-07T12:19:59;12.10;54.18
69944;DHT22;57257;48.408;-4.498;2022-12-07T12:22:38;12.12;54.11
69944;DHT22;57257;48.408;-4.498;2022-12-07T12:25:07;12.14;54.25
69944;DHT22;57257;48.408;-4.498;2022-12-07T12:27:39;12.23;54.22
69944;DHT22;57257;48.408;-4.498;2022-12-07T12:30:22;12.27;53.98
69944;DHT22;57257;48.408;-4.498;2022-12-07T12:32:49;12.30;54.05
69944;DHT22;57257;48.408;-4.498;2022-12-07T12:37:53;12.37;53.60
69944;DHT22;57257;48.408;-4.498;2022-12-07T12:42:57;12.53;53.50
69944;DHT22;57257;48.408;-4.498;2022-12-07T12:45:26;12.60;53.10
69944;DHT22;57257;48.408;-4.498;2022-12-07T12:47:58;12.64;52.86
69944;DHT22;57257;48.408;-4.498;2022-12-07T12:50:35;12.60;52.80
69944;DHT22;57257;48.408;-4.498;2022-12-07T12:53:24;12.57;52.96
69944;DHT22;57257;48.408;-4.498;2022-12-07T12:58:31;12.47;52.72
69944;DHT22;57257;48.408;-4.498;2022-12-07T13:04:00;12.54;52.85
69944;DHT22;57257;48.408;-4.498;2022-12-07T13:08:55;12.60;52.23
69944;DHT22;57257;48.408;-4.498;2022-12-07T13:16:58;12.63;52.80
69944;DHT22;57257;48.408;-4.498;2022-12-07T13:19:53;12.64;52.30
69944;DHT22;57257;48.408;-4.498;2022-12-07T13:22:46;12.71;52.66
69944;DHT22;57257;48.408;-4.498;2022-12-07T13:25:36;12.74;52.27
69944;DHT22;57257;48.408;-4.498;2022-12-07T13:28:16;13.23;52.54
69944;DHT22;57257;48.408;-4.498;2022-12-07T13:33:44;14.28;50.31
69944;DHT22;57257;48.408;-4.498;2022-12-07T13:36:22;14.24;50.09
69944;DHT22;57257;48.408;-4.498;2022-12-07T13:38:56;14.00;49.94
69944;DHT22;57257;48.408;-4.498;2022-12-07T13:41:27;13.70;50.40
69944;DHT22;57257;48.408;-4.498;2022-12-07T13:46:40;13.34;51.28
69944;DHT22;57257;48.408;-4.498;2022-12-07T13:49:23;13.26;51.72
69944;DHT22;57257;48.408;-4.498;2022-12-07T13:51:49;13.25;51.84
69944;DHT22;57257;48.408;-4.498;2022-12-07T13:54:15;13.22;51.74
69944;DHT22;57257;48.408;-4.498;2022-12-07T13:56:41;13.14;51.86
69944;DHT22;57257;48.408;-4.498;2022-12-07T13:59:19;13.05;52.02
69944;DHT22;57257;48.408;-4.498;2022-12-07T14:01:47;12.99;52.09
69944;DHT22;57257;48.408;-4.498;2022-12-07T14:06:51;13.15;52.10
69944;DHT22;57257;48.408;-4.498;2022-12-07T14:09:25;13.12;52.24
69944;DHT22;57257;48.408;-4.498;2022-12-07T14:11:53;13.12;52.23
69944;DHT22;57257;48.408;-4.498;2022-12-07T14:14:22;13.11;52.32
69944;DHT22;57257;48.408;-4.498;2022-12-07T14:16:58;13.08;52.45
69944;DHT22;57257;48.408;-4.498;2022-12-07T14:24:47;13.05;52.73
69944;DHT22;57257;48.408;-4.498;2022-12-07T14:27:18;13.15;52.48
69944;DHT22;57257;48.408;-4.498;2022-12-07T14:29:44;13.28;52.33
69944;DHT22;57257;48.408;-4.498;2022-12-07T14:32:24;13.30;52.30
69944;DHT22;57257;48.408;-4.498;2022-12-07T14:35:01;13.32;52.25
69944;DHT22;57257;48.408;-4.498;2022-12-07T14:37:29;13.26;52.33
69944;DHT22;57257;48.408;-4.498;2022-12-07T14:39:54;13.22;52.60
69944;DHT22;57257;48.408;-4.498;2022-12-07T14:42:22;13.15;52.52
69944;DHT22;57257;48.408;-4.498;2022-12-07T14:44:48;13.07;52.61
69944;DHT22;57257;48.408;-4.498;2022-12-07T14:47:14;13.01;52.57
69944;DHT22;57257;48.408;-4.498;2022-12-07T14:49:39;13.01;52.64
69944;DHT22;57257;48.408;-4.498;2022-12-07T14:52:06;12.97;52.88
69944;DHT22;57257;48.408;-4.498;2022-12-07T14:54:36;12.94;52.93
69944;DHT22;57257;48.408;-4.498;2022-12-07T14:57:02;12.94;52.86
69944;DHT22;57257;48.408;-4.498;2022-12-07T14:59:27;12.91;53.08
69944;DHT22;57257;48.408;-4.498;2022-12-07T15:01:53;12.94;53.05
69944;DHT22;57257;48.408;-4.498;2022-12-07T15:04:18;12.95;53.07
69944;DHT22;57257;48.408;-4.498;2022-12-07T15:07:04;12.98;53.14
69944;DHT22;57257;48.408;-4.498;2022-12-07T15:09:30;12.94;53.02
69944;DHT22;57257;48.408;-4.498;2022-12-07T15:11:56;12.92;53.38
69944;DHT22;57257;48.408;-4.498;2022-12-07T15:14:21;12.87;53.54
69944;DHT22;57257;48.408;-4.498;2022-12-07T15:16:48;12.80;53.64
69944;DHT22;57257;48.408;-4.498;2022-12-07T15:19:19;12.73;53.77
69944;DHT22;57257;48.408;-4.498;2022-12-07T15:21:45;12.68;53.99
69944;DHT22;57257;48.408;-4.498;2022-12-07T15:24:11;12.61;54.15
69944;DHT22;57257;48.408;-4.498;2022-12-07T15:26:38;12.58;54.27
69944;DHT22;57257;48.408;-4.498;2022-12-07T15:29:03;12.53;54.62
69944;DHT22;57257;48.408;-4.498;2022-12-07T15:31:29;12.47;54.72
69944;DHT22;57257;48.408;-4.498;2022-12-07T15:33:55;12.43;54.75
69944;DHT22;57257;48.408;-4.498;2022-12-07T15:36:25;12.40;54.87
69944;DHT22;57257;48.408;-4.498;2022-12-07T15:38:51;12.33;54.76
69944;DHT22;57257;48.408;-4.498;2022-12-07T15:41:17;12.27;55.12
69944;DHT22;57257;48.408;-4.498;2022-12-07T15:43:43;12.22;55.26
69944;DHT22;57257;48.408;-4.498;2022-12-07T15:46:36;12.20;55.64
69944;DHT22;57257;48.408;-4.498;2022-12-07T15:49:03;12.14;55.71
69944;DHT22;57257;48.408;-4.498;2022-12-07T15:51:29;12.10;55.89
69944;DHT22;57257;48.408;-4.498;2022-12-07T15:53:57;12.03;55.74
69944;DHT22;57257;48.408;-4.498;2022-12-07T15:56:22;12.02;55.94
69944;DHT22;57257;48.408;-4.498;2022-12-07T15:58:48;11.96;55.96
69944;DHT22;57257;48.408;-4.498;2022-12-07T16:01:16;11.92;56.10
69944;DHT22;57257;48.408;-4.498;2022-12-07T16:03:42;11.89;56.35
69944;DHT22;57257;48.408;-4.498;2022-12-07T16:06:08;11.85;56.48
69944;DHT22;57257;48.408;-4.498;2022-12-07T16:08:33;11.82;56.63
69944;DHT22;57257;48.408;-4.498;2022-12-07T16:10:59;11.78;56.64
69944;DHT22;57257;48.408;-4.498;2022-12-07T16:13:25;11.75;56.84
69944;DHT22;57257;48.408;-4.498;2022-12-07T16:15:50;11.72;56.83
69944;DHT22;57257;48.408;-4.498;2022-12-07T16:18:15;11.69;57.05
69944;DHT22;57257;48.408;-4.498;2022-12-07T16:20:41;11.63;57.03
69944;DHT22;57257;48.408;-4.498;2022-12-07T16:23:07;11.58;57.12
69944;DHT22;57257;48.408;-4.498;2022-12-07T16:25:33;11.52;57.25
69944;DHT22;57257;48.408;-4.498;2022-12-07T16:27:59;11.49;57.47
69944;DHT22;57257;48.408;-4.498;2022-12-07T16:30:24;11.40;57.70
69944;DHT22;57257;48.408;-4.498;2022-12-07T16:32:51;11.35;57.73
69944;DHT22;57257;48.408;-4.498;2022-12-07T16:35:16;11.29;57.83
69944;DHT22;57257;48.408;-4.498;2022-12-07T16:37:42;11.26;58.01
69944;DHT22;57257;48.408;-4.498;2022-12-07T16:40:08;11.19;58.16
69944;DHT22;57257;48.408;-4.498;2022-12-07T16:42:35;11.14;58.28
69944;DHT22;57257;48.408;-4.498;2022-12-07T16:45:01;11.07;58.29
69944;DHT22;57257;48.408;-4.498;2022-12-07T16:47:26;11.00;58.51
69944;DHT22;57257;48.408;-4.498;2022-12-07T16:49:52;10.90;58.68
69944;DHT22;57257;48.408;-4.498;2022-12-07T16:52:19;10.85;58.82
69944;DHT22;57257;48.408;-4.498;2022-12-07T16:54:44;10.80;58.82
69944;DHT22;57257;48.408;-4.498;2022-12-07T16:57:10;10.74;58.83
69944;DHT22;57257;48.408;-4.498;2022-12-07T16:59:36;10.68;59.08
69944;DHT22;57257;48.408;-4.498;2022-12-07T17:02:01;10.64;59.22
69944;DHT22;57257;48.408;-4.498;2022-12-07T17:04:27;10.57;59.37
69944;DHT22;57257;48.408;-4.498;2022-12-07T17:06:53;10.53;59.40
69944;DHT22;57257;48.408;-4.498;2022-12-07T17:09:19;10.46;59.63
69944;DHT22;57257;48.408;-4.498;2022-12-07T17:11:45;10.46;59.75
69944;DHT22;57257;48.408;-4.498;2022-12-07T17:14:11;10.39;59.89
69944;DHT22;57257;48.408;-4.498;2022-12-07T17:16:55;10.41;60.09
69944;DHT22;57257;48.408;-4.498;2022-12-07T17:19:20;10.43;59.97
69944;DHT22;57257;48.408;-4.498;2022-12-07T17:21:46;10.40;60.14
69944;DHT22;57257;48.408;-4.498;2022-12-07T17:24:15;10.39;60.34
69944;DHT22;57257;48.408;-4.498;2022-12-07T17:26:42;10.40;60.39
69944;DHT22;57257;48.408;-4.498;2022-12-07T17:29:08;10.37;60.45
69944;DHT22;57257;48.408;-4.498;2022-12-07T17:31:34;10.41;60.45
69944;DHT22;57257;48.408;-4.498;2022-12-07T17:34:00;10.40;60.52
69944;DHT22;57257;48.408;-4.498;2022-12-07T17:36:28;10.39;60.65
69944;DHT22;57257;48.408;-4.498;2022-12-07T17:38:53;10.41;60.66
69944;DHT22;57257;48.408;-4.498;2022-12-07T17:41:21;10.41;60.65
69944;DHT22;57257;48.408;-4.498;2022-12-07T17:44:16;10.41;60.85